createdAt,value
2023-02-06T00:00:16.715Z,57.60
2023-02-06T00:03:03.106Z,62.00
2023-02-06T00:05:29.271Z,52.60
2023-02-06T00:07:55.330Z,47.10
2023-02-06T00:10:23.857Z,42.70
2023-02-06T00:12:49.887Z,44.50
2023-02-06T00:15:18.989Z,45.70
2023-02-06T00:17:44.895Z,39.60
2023-02-06T00:20:11.756Z,31.70
2023-02-06T00:22:37.745Z,45.10
2023-02-06T00:25:04.035Z,30.40
2023-02-06T00:27:29.938Z,44.60
2023-02-06T00:29:56.899Z,36.20
2023-02-06T00:32:22.857Z,34.50
2023-02-06T00:34:48.882Z,31.50
2023-02-06T00:37:16.746Z,33.30
2023-02-06T00:39:42.958Z,35.00
2023-02-06T00:42:08.938Z,41.20
2023-02-06T00:44:34.900Z,30.60
2023-02-06T00:47:00.949Z,34.10
2023-02-06T00:49:27.213Z,37.60
2023-02-06T00:51:53.156Z,32.90
2023-02-06T00:54:20.242Z,31.00
2023-02-06T00:59:13.581Z,34.70
2023-02-06T01:01:39.511Z,39.70
2023-02-06T01:04:05.474Z,30.80
2023-02-06T01:06:31.503Z,44.10
2023-02-06T01:08:57.465Z,31.10
2023-02-06T01:11:24.380Z,41.60
2023-02-06T01:13:51.674Z,35.80
2023-02-06T01:16:19.382Z,29.90
2023-02-06T01:18:45.359Z,40.50
2023-02-06T01:21:12.937Z,30.50
2023-02-06T01:23:38.979Z,33.00
2023-02-06T01:26:10.824Z,37.60
2023-02-06T01:28:40.355Z,36.90
2023-02-06T01:31:14.387Z,34.90
2023-02-06T01:33:40.435Z,25.50
2023-02-06T01:36:06.818Z,31.10
2023-02-06T01:38:32.839Z,31.10
2023-02-06T01:40:59.541Z,53.60
2023-02-06T01:43:28.076Z,60.20
2023-02-06T01:45:54.038Z,42.00
2023-02-06T01:48:21.618Z,41.00
2023-02-06T01:50:50.499Z,32.70
2023-02-06T01:53:16.473Z,39.70
2023-02-06T01:55:43.907Z,40.60
2023-02-06T01:58:10.675Z,50.30
2023-02-06T02:00:36.792Z,46.30
2023-02-06T02:03:02.840Z,55.80
2023-02-06T02:05:28.788Z,46.90
2023-02-06T02:10:30.073Z,43.70
2023-02-06T02:12:56.563Z,44.80
2023-02-06T02:15:24.361Z,59.90
2023-02-06T02:18:02.605Z,45.00
2023-02-06T02:20:56.760Z,49.70
2023-02-06T02:23:31.145Z,48.80
2023-02-06T02:26:07.368Z,52.00
2023-02-06T02:28:33.380Z,47.10
2023-02-06T02:31:07.676Z,57.70
2023-02-06T02:33:39.874Z,43.70
2023-02-06T02:36:45.107Z,43.80
2023-02-06T02:39:31.902Z,34.30
2023-02-06T02:42:12.790Z,36.40
2023-02-06T02:45:07.284Z,25.80
2023-02-06T02:47:38.396Z,31.00
2023-02-06T02:50:04.825Z,25.60
2023-02-06T02:52:30.751Z,34.90
2023-02-06T02:54:56.650Z,30.00
2023-02-06T02:57:29.463Z,33.10
2023-02-06T02:59:56.751Z,27.80
2023-02-06T03:02:28.744Z,33.20
2023-02-06T03:05:01.719Z,33.00
2023-02-06T03:07:53.034Z,37.40
2023-02-06T03:10:44.522Z,37.80
2023-02-06T03:13:18.430Z,31.50
2023-02-06T03:16:07.556Z,37.30
2023-02-06T03:18:40.592Z,34.40
2023-02-06T03:21:10.223Z,40.70
2023-02-06T03:23:38.760Z,31.60
2023-02-06T03:26:06.260Z,35.50
2023-02-06T03:28:33.926Z,29.20
2023-02-06T03:31:01.235Z,39.80
2023-02-06T03:33:30.900Z,30.50
2023-02-06T03:35:57.422Z,26.40
2023-02-06T03:38:24.140Z,33.40
2023-02-06T03:40:50.238Z,30.20
2023-02-06T03:43:18.134Z,44.60
2023-02-06T03:45:46.862Z,36.70
2023-02-06T03:48:18.708Z,39.80
2023-02-06T03:50:45.404Z,34.70
2023-02-06T03:53:11.349Z,37.60
2023-02-06T03:55:38.110Z,33.10
2023-02-06T04:00:32.411Z,32.80
2023-02-06T04:02:58.724Z,35.50
2023-02-06T04:05:24.805Z,35.50
2023-02-06T04:07:52.009Z,47.80
2023-02-06T04:10:18.016Z,30.90
2023-02-06T04:12:43.951Z,35.30
2023-02-06T04:15:10.099Z,41.90
2023-02-06T04:17:53.570Z,40.00
2023-02-06T04:20:22.541Z,34.40
2023-02-06T04:22:48.566Z,38.40
2023-02-06T04:25:14.447Z,45.20
2023-02-06T04:27:40.337Z,32.10
2023-02-06T04:30:07.291Z,40.00
2023-02-06T04:32:33.253Z,35.70
2023-02-06T04:34:59.172Z,42.10
2023-02-06T04:37:25.061Z,37.50
2023-02-06T04:39:50.981Z,34.80
2023-02-06T04:42:16.901Z,39.90
2023-02-06T04:44:42.835Z,34.30
2023-02-06T04:47:08.734Z,38.90
2023-02-06T04:49:34.667Z,31.50
2023-02-06T04:52:00.591Z,42.80
2023-02-06T04:54:26.561Z,30.40
2023-02-06T04:56:52.493Z,40.40
2023-02-06T04:59:18.382Z,34.60
2023-02-06T05:01:44.338Z,35.20
2023-02-06T05:04:10.272Z,33.20
2023-02-06T05:06:36.216Z,33.90
2023-02-06T05:09:02.972Z,38.80
2023-02-06T05:11:28.858Z,37.00
2023-02-06T05:13:54.769Z,31.00
2023-02-06T05:16:20.695Z,32.20
2023-02-06T05:18:46.790Z,34.30
2023-02-06T05:21:13.374Z,28.90
2023-02-06T05:23:39.724Z,32.00
2023-02-06T05:26:05.659Z,32.80
2023-02-06T05:28:34.500Z,36.50
2023-02-06T05:31:01.281Z,31.80
2023-02-06T05:33:27.356Z,33.20
2023-02-06T05:35:53.285Z,33.40
2023-02-06T05:38:19.194Z,38.70
2023-02-06T05:40:45.227Z,43.70
2023-02-06T05:43:11.291Z,31.70
2023-02-06T05:45:37.592Z,25.10
2023-02-06T05:48:04.085Z,29.60
2023-02-06T05:50:30.001Z,32.30
2023-02-06T05:52:58.100Z,26.70
2023-02-06T05:55:24.409Z,37.20
2023-02-06T05:57:50.354Z,32.80
2023-02-06T06:00:16.541Z,33.30
2023-02-06T06:02:42.501Z,34.50
2023-02-06T06:05:08.496Z,25.80
2023-02-06T06:07:34.453Z,27.10
2023-02-06T06:10:00.372Z,31.40
2023-02-06T06:12:26.261Z,33.10
2023-02-06T06:14:52.169Z,27.00
2023-02-06T06:17:18.156Z,28.70
2023-02-06T06:19:44.059Z,33.60
2023-02-06T06:22:10.866Z,28.90
2023-02-06T06:24:37.132Z,34.70
2023-02-06T06:27:03.125Z,36.20
2023-02-06T06:29:29.102Z,29.10
2023-02-06T06:31:55.105Z,30.20
2023-02-06T06:34:21.185Z,34.40
2023-02-06T06:36:47.095Z,36.20
2023-02-06T06:39:12.999Z,40.40
2023-02-06T06:41:38.926Z,37.40
2023-02-06T06:44:04.814Z,48.30
2023-02-06T06:46:30.709Z,54.90
2023-02-06T06:48:56.624Z,53.10
2023-02-06T06:51:23.054Z,50.80
2023-02-06T06:53:48.951Z,55.40
2023-02-06T06:56:14.949Z,67.00
2023-02-06T06:58:41.304Z,63.30
2023-02-06T07:01:08.065Z,51.70
2023-02-06T07:03:34.236Z,51.50
2023-02-06T07:06:00.217Z,61.50
2023-02-06T07:08:29.319Z,44.80
2023-02-06T07:10:56.963Z,51.30
2023-02-06T07:13:23.127Z,57.00
2023-02-06T07:15:49.066Z,47.30
2023-02-06T07:18:14.985Z,49.00
2023-02-06T07:20:40.901Z,42.50
2023-02-06T07:23:06.831Z,42.20
2023-02-06T07:25:32.877Z,59.20
2023-02-06T07:27:58.865Z,45.50
2023-02-06T07:30:24.801Z,63.30
2023-02-06T07:32:50.852Z,56.60
2023-02-06T07:35:17.063Z,82.40
2023-02-06T07:37:42.960Z,79.00
2023-02-06T07:40:10.041Z,71.10
2023-02-06T07:45:09.003Z,53.00
2023-02-06T07:47:34.930Z,57.60
2023-02-06T07:50:00.850Z,76.30
2023-02-06T07:52:26.761Z,63.70
2023-02-06T07:54:54.342Z,57.80
2023-02-06T07:57:20.770Z,64.20
2023-02-06T07:59:46.711Z,74.20
2023-02-06T08:02:12.707Z,56.10
2023-02-06T08:04:38.854Z,58.10
2023-02-06T08:07:05.224Z,58.10
2023-02-06T08:09:31.461Z,63.60
2023-02-06T08:11:57.400Z,52.70
2023-02-06T08:14:24.002Z,59.00
2023-02-06T08:16:50.248Z,52.90
2023-02-06T08:19:16.140Z,48.90
2023-02-06T08:21:42.064Z,43.80
2023-02-06T08:24:13.044Z,21.50
2023-02-06T08:26:39.036Z,57.80
2023-02-06T08:29:05.879Z,43.10
2023-02-06T08:31:33.911Z,36.90
2023-02-06T08:33:59.955Z,40.50
2023-02-06T08:36:26.183Z,56.00
2023-02-06T08:38:52.467Z,78.30
2023-02-06T08:41:21.379Z,42.40
2023-02-06T08:43:48.204Z,55.80
2023-02-06T08:46:14.883Z,45.50
2023-02-06T08:48:40.829Z,41.40
2023-02-06T08:51:07.627Z,56.20
2023-02-06T08:53:33.625Z,39.00
2023-02-06T08:56:00.745Z,56.70
2023-02-06T09:00:53.050Z,47.50
2023-02-06T09:03:20.396Z,50.80
2023-02-06T09:05:46.620Z,45.60
2023-02-06T09:08:12.710Z,54.70
2023-02-06T09:10:38.598Z,57.90
2023-02-06T09:13:04.559Z,38.30
2023-02-06T09:15:30.518Z,38.60
2023-02-06T09:17:56.526Z,55.40
2023-02-06T09:20:25.948Z,53.90
2023-02-06T09:22:52.629Z,55.10
2023-02-06T09:25:18.582Z,53.90
2023-02-06T09:27:46.212Z,49.60
2023-02-06T09:30:15.085Z,49.90
2023-02-06T09:32:42.553Z,50.80
2023-02-06T09:35:08.455Z,45.00
2023-02-06T09:37:34.766Z,43.10
2023-02-06T09:40:00.672Z,46.50
2023-02-06T09:42:29.453Z,48.20
2023-02-06T09:45:11.219Z,56.90
2023-02-06T09:47:39.331Z,50.40
2023-02-06T09:50:07.280Z,38.70
2023-02-06T09:53:10.673Z,36.30
2023-02-06T09:55:40.686Z,42.40
2023-02-06T09:58:38.814Z,42.90
2023-02-06T10:01:20.959Z,45.90
2023-02-06T10:04:10.072Z,45.70
2023-02-06T10:06:41.525Z,34.50
2023-02-06T10:09:14.364Z,46.10
2023-02-06T10:11:48.674Z,43.90
2023-02-06T10:14:24.070Z,43.90
2023-02-06T10:17:04.221Z,40.60
2023-02-06T10:19:38.527Z,35.50
2023-02-06T10:22:08.665Z,43.50
2023-02-06T10:24:40.469Z,40.10
2023-02-06T10:27:10.498Z,43.30
2023-02-06T10:29:36.452Z,47.10
2023-02-06T10:32:25.791Z,43.40
2023-02-06T10:35:02.971Z,45.00
2023-02-06T10:37:52.685Z,53.70
2023-02-06T10:40:27.741Z,46.80
2023-02-06T10:43:22.234Z,43.50
2023-02-06T10:46:19.250Z,42.80
2023-02-06T10:49:16.740Z,42.70
2023-02-06T10:51:44.781Z,42.70
2023-02-06T10:54:16.851Z,41.10
2023-02-06T10:56:44.329Z,38.90
2023-02-06T10:59:39.921Z,41.20
2023-02-06T11:02:08.720Z,41.70
2023-02-06T11:04:39.706Z,40.50
2023-02-06T11:07:15.688Z,34.80
2023-02-06T11:09:41.636Z,34.10
2023-02-06T11:12:18.179Z,28.00
2023-02-06T11:14:44.093Z,31.20
2023-02-06T11:17:10.032Z,32.20
2023-02-06T11:19:41.683Z,30.50
2023-02-06T11:22:10.574Z,28.90
2023-02-06T11:24:36.806Z,31.10
2023-02-06T11:27:18.391Z,28.70
2023-02-06T11:29:46.855Z,26.60
2023-02-06T11:32:35.401Z,26.70
2023-02-06T11:35:09.784Z,24.90
2023-02-06T11:37:37.768Z,26.30
2023-02-06T11:40:19.137Z,25.00
2023-02-06T11:42:46.303Z,29.40
2023-02-06T11:47:57.133Z,24.80
2023-02-06T11:50:27.602Z,24.80
2023-02-06T11:53:10.683Z,27.50
2023-02-06T11:55:37.751Z,22.00
2023-02-06T12:00:52.289Z,23.20
2023-02-06T12:03:26.670Z,28.40
2023-02-06T12:05:52.730Z,31.60
2023-02-06T12:08:19.099Z,22.00
2023-02-06T12:10:57.101Z,38.00
2023-02-06T12:13:25.832Z,31.40
2023-02-06T12:15:53.774Z,25.70
2023-02-06T12:18:34.591Z,32.20
2023-02-06T12:21:11.190Z,25.30
2023-02-06T12:23:45.377Z,29.80
2023-02-06T12:26:14.719Z,23.10
2023-02-06T12:28:51.007Z,29.70
2023-02-06T12:31:41.131Z,29.00
2023-02-06T12:34:15.424Z,32.20
2023-02-06T12:37:14.472Z,25.40
2023-02-06T12:39:41.968Z,19.20
2023-02-06T12:42:41.534Z,20.50
2023-02-06T12:45:44.237Z,14.60
2023-02-06T12:48:18.372Z,13.10
2023-02-06T12:51:07.062Z,17.20
2023-02-06T12:53:40.215Z,15.80
2023-02-06T12:56:25.058Z,13.30
2023-02-06T12:59:13.910Z,13.10
2023-02-06T13:02:00.793Z,10.50
2023-02-06T13:04:29.042Z,11.60
2023-02-06T13:07:05.912Z,13.40
2023-02-06T13:09:36.829Z,17.70
2023-02-06T13:12:07.732Z,19.90
2023-02-06T13:14:33.631Z,23.90
2023-02-06T13:17:07.233Z,18.40
2023-02-06T13:19:36.121Z,23.10
2023-02-06T13:22:12.404Z,23.10
2023-02-06T13:24:39.642Z,22.40
2023-02-06T13:27:08.584Z,20.00
2023-02-06T13:29:37.024Z,22.00
2023-02-06T13:32:15.176Z,17.80
2023-02-06T13:34:44.207Z,9.60
2023-02-06T13:37:33.311Z,13.50
2023-02-06T13:40:12.116Z,16.20
2023-02-06T13:42:56.169Z,14.20
2023-02-06T13:45:31.625Z,13.30
2023-02-06T13:48:35.769Z,11.90
2023-02-06T13:51:16.813Z,17.50
2023-02-06T13:54:02.472Z,14.20
2023-02-06T13:57:02.522Z,17.40
2023-02-06T13:59:32.069Z,16.70
2023-02-06T14:02:11.934Z,15.70
2023-02-06T14:04:37.897Z,22.60
2023-02-06T14:07:24.476Z,19.60
2023-02-06T14:09:59.430Z,16.90
2023-02-06T14:12:44.130Z,18.70
2023-02-06T14:15:36.188Z,14.80
2023-02-06T14:18:06.596Z,17.60
2023-02-06T14:20:49.233Z,16.50
2023-02-06T14:23:52.617Z,11.60
2023-02-06T14:26:29.223Z,10.00
2023-02-06T14:29:08.660Z,13.50
2023-02-06T14:31:53.094Z,8.00
2023-02-06T14:34:43.710Z,7.30
2023-02-06T14:37:23.453Z,8.00
2023-02-06T14:39:54.072Z,7.90
2023-02-06T14:42:24.135Z,7.40
2023-02-06T14:44:56.577Z,9.10
2023-02-06T14:47:25.460Z,8.30
2023-02-06T14:49:51.357Z,7.20
2023-02-06T14:52:20.693Z,11.40
2023-02-06T14:54:46.668Z,13.00
2023-02-06T14:57:21.543Z,10.00
2023-02-06T15:00:02.413Z,11.10
2023-02-06T15:02:31.125Z,11.90
2023-02-06T15:04:57.595Z,8.70
2023-02-06T15:07:29.454Z,10.70
2023-02-06T15:10:07.844Z,8.30
2023-02-06T15:12:33.999Z,10.90
2023-02-06T15:15:24.451Z,13.10
2023-02-06T15:18:07.962Z,9.10
2023-02-06T15:20:40.806Z,8.70
2023-02-06T15:23:18.110Z,14.20
2023-02-06T15:26:05.048Z,13.20
2023-02-06T15:28:32.527Z,15.10
2023-02-06T15:30:59.437Z,12.30
2023-02-06T15:33:27.821Z,11.50
2023-02-06T15:35:54.940Z,14.70
2023-02-06T15:40:59.571Z,12.60
2023-02-06T15:43:25.852Z,9.10
2023-02-06T15:45:56.553Z,10.60
2023-02-06T15:48:31.534Z,16.60
2023-02-06T15:51:22.195Z,13.10
2023-02-06T15:53:50.010Z,9.60
2023-02-06T15:56:21.809Z,13.70
2023-02-06T15:58:48.504Z,9.10
2023-02-06T16:01:16.976Z,9.10
2023-02-06T16:03:43.053Z,12.80
2023-02-06T16:06:15.760Z,10.90
2023-02-06T16:08:42.145Z,13.10
2023-02-06T16:11:29.106Z,17.50
2023-02-06T16:13:55.078Z,14.10
2023-02-06T16:16:22.763Z,10.30
2023-02-06T16:18:51.405Z,18.60
2023-02-06T16:21:17.342Z,16.90
2023-02-06T16:23:49.493Z,25.60
2023-02-06T16:26:19.875Z,31.40
2023-02-06T16:29:04.710Z,18.50
2023-02-06T16:31:31.670Z,17.70
2023-02-06T16:34:02.481Z,17.30
2023-02-06T16:36:29.578Z,14.50
2023-02-06T16:41:32.924Z,16.70
2023-02-06T16:43:59.207Z,16.20
2023-02-06T16:46:25.296Z,23.40
2023-02-06T16:48:52.105Z,14.80
2023-02-06T16:51:20.158Z,16.50
2023-02-06T16:53:47.662Z,16.80
2023-02-06T16:56:14.159Z,16.90
2023-02-06T16:58:40.272Z,29.50
2023-02-06T17:01:11.131Z,39.50
2023-02-06T17:03:38.190Z,29.70
2023-02-06T17:08:30.270Z,43.50
2023-02-06T17:10:56.184Z,46.80
2023-02-06T17:13:23.083Z,40.70
2023-02-06T17:15:51.545Z,46.90
2023-02-06T17:18:17.784Z,49.20
2023-02-06T17:20:45.705Z,41.50
2023-02-06T17:23:11.642Z,40.60
2023-02-06T17:25:38.649Z,47.70
2023-02-06T17:28:06.851Z,35.80
2023-02-06T17:30:33.479Z,39.40
2023-02-06T17:32:59.524Z,34.60
2023-02-06T17:35:25.551Z,36.80
2023-02-06T17:37:51.657Z,38.70
2023-02-06T17:40:20.425Z,35.00
2023-02-06T17:42:46.969Z,38.10
2023-02-06T17:45:12.969Z,47.50
2023-02-06T17:47:38.978Z,43.50
2023-02-06T17:50:05.378Z,45.50
2023-02-06T17:52:31.315Z,42.70
2023-02-06T17:54:57.424Z,37.80
2023-02-06T17:57:23.439Z,53.80
2023-02-06T17:59:52.088Z,57.50
2023-02-06T18:02:18.020Z,46.40
2023-02-06T18:04:44.055Z,50.10
2023-02-06T18:07:10.060Z,59.40
2023-02-06T18:09:36.051Z,47.90
2023-02-06T18:12:02.066Z,46.10
2023-02-06T18:14:27.994Z,51.80
2023-02-06T18:16:53.931Z,64.30
2023-02-06T18:19:24.119Z,72.80
2023-02-06T18:21:50.310Z,61.00
2023-02-06T18:24:16.426Z,68.70
2023-02-06T18:26:42.523Z,64.70
2023-02-06T18:29:08.452Z,84.40
2023-02-06T18:31:35.258Z,66.20
2023-02-06T18:34:02.680Z,69.40
2023-02-06T18:36:29.241Z,64.20
2023-02-06T18:38:55.849Z,62.10
2023-02-06T18:44:41.237Z,65.60
2023-02-06T18:47:10.025Z,83.30
2023-02-06T18:49:37.972Z,70.00
2023-02-06T18:52:04.720Z,92.50
2023-02-06T18:54:31.554Z,74.00
2023-02-06T18:57:01.071Z,79.40
2023-02-06T18:59:27.211Z,82.90
2023-02-06T19:02:19.325Z,88.80
2023-02-06T19:04:45.540Z,78.00
2023-02-06T19:07:11.689Z,79.70
2023-02-06T19:09:38.134Z,76.30
2023-02-06T19:12:04.630Z,78.20
2023-02-06T19:14:31.184Z,94.70
2023-02-06T19:16:57.880Z,81.40
2023-02-06T19:19:27.179Z,83.20
2023-02-06T19:21:53.202Z,91.60
2023-02-06T19:24:19.140Z,80.10
2023-02-06T19:26:45.220Z,83.60
2023-02-06T19:29:17.604Z,95.20
2023-02-06T19:31:45.628Z,78.30
2023-02-06T19:34:11.742Z,87.60
2023-02-06T19:36:37.890Z,81.00
2023-02-06T19:39:06.085Z,108.50
2023-02-06T19:41:32.665Z,89.40
2023-02-06T19:44:02.617Z,101.20
2023-02-06T19:46:28.936Z,80.10
2023-02-06T19:48:55.217Z,90.50
2023-02-06T19:51:24.465Z,88.40
2023-02-06T19:53:50.864Z,96.60
2023-02-06T19:56:22.651Z,87.50
2023-02-06T19:58:53.378Z,105.40
2023-02-06T20:01:19.342Z,107.90
2023-02-06T20:06:27.310Z,86.40
2023-02-06T20:08:53.898Z,87.50
2023-02-06T20:11:21.000Z,80.40
2023-02-06T20:13:51.642Z,78.60
2023-02-06T20:16:19.803Z,76.60
2023-02-06T20:18:45.912Z,79.10
2023-02-06T20:21:19.582Z,74.90
2023-02-06T20:23:45.685Z,104.90
2023-02-06T20:26:11.960Z,85.40
2023-02-06T20:28:37.875Z,101.20
2023-02-06T20:31:08.993Z,105.00
2023-02-06T20:33:37.901Z,115.90
2023-02-06T20:36:06.004Z,103.30
2023-02-06T20:38:31.949Z,84.10
2023-02-06T20:40:57.868Z,99.10
2023-02-06T20:43:23.763Z,92.60
2023-02-06T20:45:49.746Z,100.90
2023-02-06T20:48:15.659Z,97.60
2023-02-06T20:50:42.175Z,95.20
2023-02-06T20:53:08.129Z,121.00
2023-02-06T20:55:34.046Z,102.60
2023-02-06T20:57:59.979Z,140.70
2023-02-06T21:00:25.875Z,143.90
2023-02-06T21:02:53.177Z,126.20
2023-02-06T21:05:19.613Z,183.90
2023-02-06T21:07:45.538Z,168.80
2023-02-06T21:10:11.449Z,220.50
2023-02-06T21:12:37.387Z,117.30
2023-02-06T21:15:03.645Z,126.20
2023-02-06T21:17:29.593Z,140.70
2023-02-06T21:19:55.500Z,133.30
2023-02-06T21:22:21.451Z,137.70
2023-02-06T21:24:47.377Z,147.90
2023-02-06T21:27:13.325Z,151.30
2023-02-06T21:29:39.364Z,151.50
2023-02-06T21:32:13.752Z,147.40
2023-02-06T21:34:40.712Z,155.00
2023-02-06T21:37:06.640Z,217.00
2023-02-06T21:39:32.609Z,199.20
2023-02-06T21:41:59.819Z,163.90
2023-02-06T21:44:25.943Z,172.70
2023-02-06T21:46:52.022Z,214.50
2023-02-06T21:49:18.476Z,214.20
2023-02-06T21:51:44.841Z,171.90
2023-02-06T21:54:10.886Z,168.50
2023-02-06T21:56:39.954Z,161.30
2023-02-06T21:59:06.333Z,158.50
2023-02-06T22:01:32.933Z,228.10
2023-02-06T22:03:59.256Z,180.10
2023-02-06T22:06:25.907Z,159.00
2023-02-06T22:08:53.555Z,161.80
2023-02-06T22:11:27.064Z,209.90
2023-02-06T22:13:56.775Z,159.20
2023-02-06T22:16:23.024Z,177.90
2023-02-06T22:18:49.113Z,179.70
2023-02-06T22:21:16.642Z,174.90
2023-02-06T22:23:43.017Z,189.70
2023-02-06T22:26:09.860Z,215.20
2023-02-06T22:28:36.115Z,181.30
2023-02-06T22:31:10.145Z,180.10
2023-02-06T22:33:36.159Z,179.40
2023-02-06T22:36:13.817Z,177.60
2023-02-06T22:38:40.568Z,192.30
2023-02-06T22:41:08.308Z,190.30
2023-02-06T22:43:35.765Z,200.10
2023-02-06T22:46:02.083Z,239.00
2023-02-06T22:48:28.077Z,180.40
2023-02-06T22:50:54.137Z,226.30
2023-02-06T22:53:29.572Z,172.30
2023-02-06T22:56:18.803Z,156.70
2023-02-06T22:58:44.914Z,163.80
2023-02-06T23:01:10.952Z,165.10
2023-02-06T23:03:37.011Z,165.60
2023-02-06T23:06:04.059Z,184.80
2023-02-06T23:08:30.052Z,204.10
2023-02-06T23:10:56.104Z,214.20
2023-02-06T23:13:22.127Z,189.20
2023-02-06T23:15:48.546Z,218.60
2023-02-06T23:18:14.603Z,193.70
2023-02-06T23:20:40.530Z,194.70
2023-02-06T23:23:06.430Z,206.10
2023-02-06T23:25:32.378Z,192.60
2023-02-06T23:27:58.282Z,199.10
2023-02-06T23:30:24.400Z,239.80
2023-02-06T23:32:50.389Z,186.80
2023-02-06T23:35:16.990Z,247.00
2023-02-06T23:37:42.901Z,256.30
2023-02-06T23:40:09.297Z,180.10
2023-02-06T23:42:35.209Z,183.70
2023-02-06T23:45:01.152Z,253.20
2023-02-06T23:47:27.059Z,175.90
2023-02-06T23:49:52.954Z,178.50
2023-02-06T23:52:18.910Z,189.90
2023-02-06T23:54:44.815Z,170.40
2023-02-06T23:57:10.732Z,175.20
2023-02-06T23:59:36.663Z,172.00
